UAE225 MMMX-KLAX
Flight info
| Callsign | UAE225 |
|---|---|
| Flight time | 3h 23m |
| Altitude | 40000 |
| Route | ATUR3B/23R ATURO UT134 ZCL DCT AVISU UT60 AXASA UT41 ASUTA DCT AMMOR OLAAA2 |
| Aircraft | A388/J-SADE2E3FGHIJ3J4J5M1RWXY/LB1D1 |
Departure
| Time | 2026-04-24 03:47 |
|---|---|
| Airport | Mexico City Benito Juárez International Airport (MMMX) |
Arrival
| Time | 2026-04-24 07:11 |
|---|---|
| Airport | Los Angeles International Airport (KLAX) |
| Time | Latitude | Longitude | Altitude | Speed | Heading |
|---|---|---|---|---|---|
| 2026-04-24 03:18 | 19.43709 | -99.07689 | 7308 ft | 0 kts | 330° |
| 2026-04-24 03:30 | 19.43708 | -99.07689 | 7308 ft | 0 kts | 330° |
| 2026-04-24 03:30 | 19.43709 | -99.07686 | 7308 ft | 0 kts | 302° |
| 2026-04-24 03:31 | 19.43711 | -99.07692 | 7308 ft | 2 kts | 356° |
| 2026-04-24 03:31 | 19.43715 | -99.07685 | 7308 ft | 1 kts | 226° |
| 2026-04-24 03:31 | 19.43718 | -99.07690 | 7308 ft | 1 kts | 138° |
| 2026-04-24 03:32 | 19.43717 | -99.07692 | 7308 ft | 0 kts | 116° |
| 2026-04-24 03:32 | 19.43712 | -99.07680 | 7308 ft | 2 kts | 116° |
| 2026-04-24 03:32 | 19.43705 | -99.07665 | 7308 ft | 2 kts | 116° |
| 2026-04-24 03:32 | 19.43697 | -99.07649 | 7308 ft | 2 kts | 117° |
| 2026-04-24 03:33 | 19.43698 | -99.07651 | 7308 ft | 0 kts | 117° |
| 2026-04-24 03:37 | 19.43698 | -99.07650 | 7308 ft | 1 kts | 115° |
| 2026-04-24 03:38 | 19.43713 | -99.07580 | 7308 ft | 21 kts | 60° |
| 2026-04-24 03:38 | 19.43789 | -99.07434 | 7308 ft | 13 kts | 60° |
| 2026-04-24 03:38 | 19.43845 | -99.07345 | 7308 ft | 20 kts | 54° |
| 2026-04-24 03:38 | 19.43857 | -99.07326 | 7308 ft | 0 kts | 58° |
| 2026-04-24 03:39 | 19.43899 | -99.07253 | 7308 ft | 24 kts | 59° |
| 2026-04-24 03:39 | 19.44024 | -99.07033 | 7308 ft | 38 kts | 58° |
| 2026-04-24 03:39 | 19.44084 | -99.06920 | 7308 ft | 1 kts | 89° |
| 2026-04-24 03:40 | 19.44084 | -99.06907 | 7308 ft | 0 kts | 102° |
| 2026-04-24 03:41 | 19.44083 | -99.06905 | 7308 ft | 2 kts | 103° |
| 2026-04-24 03:41 | 19.44019 | -99.06831 | 7309 ft | 24 kts | 144° |
| 2026-04-24 03:41 | 19.43964 | -99.06660 | 7308 ft | 24 kts | 94° |
| 2026-04-24 03:41 | 19.43963 | -99.06609 | 7308 ft | 0 kts | 90° |
| 2026-04-24 03:42 | 19.43963 | -99.06606 | 7308 ft | 0 kts | 90° |
| 2026-04-24 03:43 | 19.43962 | -99.06548 | 7308 ft | 29 kts | 90° |
| 2026-04-24 03:43 | 19.43969 | -99.06231 | 7308 ft | 30 kts | 88° |
| 2026-04-24 03:43 | 19.44010 | -99.05935 | 7308 ft | 53 kts | 66° |
| 2026-04-24 03:44 | 19.44160 | -99.05632 | 7308 ft | 35 kts | 60° |
| 2026-04-24 03:44 | 19.44281 | -99.05419 | 7308 ft | 40 kts | 58° |
| 2026-04-24 03:44 | 19.44444 | -99.05245 | 7308 ft | 21 kts | 344° |
| 2026-04-24 03:44 | 19.44462 | -99.05255 | 7308 ft | 0 kts | 322° |
| 2026-04-24 03:45 | 19.44464 | -99.05256 | 7308 ft | 1 kts | 322° |
| 2026-04-24 03:45 | 19.44478 | -99.05270 | 7308 ft | 3 kts | 311° |
| 2026-04-24 03:45 | 19.44479 | -99.05271 | 7308 ft | 1 kts | 310° |
| 2026-04-24 03:45 | 19.44488 | -99.05284 | 7308 ft | 8 kts | 305° |
| 2026-04-24 03:46 | 19.44508 | -99.05370 | 7307 ft | 14 kts | 251° |
| 2026-04-24 03:46 | 19.44472 | -99.05430 | 7307 ft | 0 kts | 238° |
| 2026-04-24 03:46 | 19.44472 | -99.05431 | 7307 ft | 0 kts | 238° |
| 2026-04-24 03:46 | 19.44354 | -99.05632 | 7310 ft | 73 kts | 238° |
| 2026-04-24 03:47 | 19.43948 | -99.06357 | 7309 ft | 150 kts | 239° |
| 2026-04-24 03:47 | 19.43335 | -99.07444 | 7497 ft | 182 kts | 239° |
| 2026-04-24 03:47 | 19.42697 | -99.08597 | 8349 ft | 184 kts | 240° |
| 2026-04-24 03:47 | 19.42077 | -99.09790 | 9116 ft | 186 kts | 242° |
| 2026-04-24 03:48 | 19.41435 | -99.11030 | 9418 ft | 198 kts | 243° |
| 2026-04-24 03:48 | 19.40749 | -99.12331 | 9687 ft | 200 kts | 243° |
| 2026-04-24 03:48 | 19.40036 | -99.13658 | 9886 ft | 212 kts | 242° |
| 2026-04-24 03:48 | 19.39320 | -99.14973 | 10343 ft | 208 kts | 242° |
| 2026-04-24 03:49 | 19.38586 | -99.16320 | 10608 ft | 213 kts | 241° |
| 2026-04-24 03:49 | 19.37840 | -99.17686 | 10941 ft | 214 kts | 242° |
| 2026-04-24 03:49 | 19.37147 | -99.19089 | 11193 ft | 218 kts | 258° |
| 2026-04-24 03:49 | 19.37154 | -99.20674 | 11676 ft | 218 kts | 291° |
| 2026-04-24 03:50 | 19.37999 | -99.21985 | 12224 ft | 220 kts | 325° |
| 2026-04-24 03:50 | 19.39404 | -99.22594 | 12837 ft | 225 kts | 354° |
| 2026-04-24 03:50 | 19.41042 | -99.22644 | 13182 ft | 246 kts | 1° |
| 2026-04-24 03:50 | 19.42829 | -99.22575 | 13462 ft | 269 kts | 1° |
| 2026-04-24 03:51 | 19.44752 | -99.22525 | 13679 ft | 291 kts | 0° |
| 2026-04-24 03:51 | 19.46849 | -99.22525 | 13854 ft | 312 kts | 359° |
| 2026-04-24 03:51 | 19.49082 | -99.22564 | 14042 ft | 331 kts | 359° |
| 2026-04-24 03:51 | 19.51449 | -99.22624 | 14199 ft | 349 kts | 358° |
| 2026-04-24 03:52 | 19.53904 | -99.22692 | 14670 ft | 355 kts | 358° |
| 2026-04-24 03:52 | 19.56384 | -99.22761 | 15210 ft | 359 kts | 358° |
| 2026-04-24 03:52 | 19.58917 | -99.22831 | 15648 ft | 367 kts | 358° |
| 2026-04-24 03:52 | 19.61478 | -99.22901 | 16214 ft | 370 kts | 357° |
| 2026-04-24 03:53 | 19.64070 | -99.22970 | 16722 ft | 375 kts | 357° |
| 2026-04-24 03:53 | 19.66660 | -99.23040 | 17251 ft | 379 kts | 357° |
| 2026-04-24 03:53 | 19.69316 | -99.23111 | 17827 ft | 384 kts | 357° |
| 2026-04-24 03:53 | 19.72000 | -99.23183 | 18346 ft | 388 kts | 357° |
| 2026-04-24 03:54 | 19.74715 | -99.23256 | 18823 ft | 391 kts | 357° |
| 2026-04-24 03:54 | 19.77442 | -99.23328 | 19353 ft | 392 kts | 357° |
| 2026-04-24 03:54 | 19.80177 | -99.23402 | 19851 ft | 394 kts | 357° |
| 2026-04-24 03:54 | 19.82924 | -99.23475 | 20337 ft | 396 kts | 357° |
| 2026-04-24 03:55 | 19.85685 | -99.23549 | 20804 ft | 398 kts | 357° |
| 2026-04-24 03:55 | 19.88457 | -99.23623 | 21275 ft | 399 kts | 357° |
| 2026-04-24 03:55 | 19.91203 | -99.23697 | 21778 ft | 400 kts | 356° |
| 2026-04-24 03:55 | 19.93990 | -99.23771 | 22244 ft | 402 kts | 356° |
| 2026-04-24 03:56 | 19.96796 | -99.23847 | 22651 ft | 405 kts | 356° |
| 2026-04-24 03:56 | 19.99621 | -99.23924 | 23088 ft | 407 kts | 356° |
| 2026-04-24 03:56 | 20.02458 | -99.24000 | 23521 ft | 409 kts | 356° |
| 2026-04-24 03:56 | 20.05314 | -99.24077 | 23897 ft | 411 kts | 356° |
| 2026-04-24 03:57 | 20.08180 | -99.24162 | 24278 ft | 412 kts | 354° |
| 2026-04-24 03:57 | 20.10994 | -99.24701 | 24623 ft | 411 kts | 340° |
| 2026-04-24 03:57 | 20.13584 | -99.25967 | 25002 ft | 411 kts | 326° |
| 2026-04-24 03:57 | 20.15797 | -99.27876 | 25373 ft | 412 kts | 313° |
| 2026-04-24 03:58 | 20.17614 | -99.30186 | 25756 ft | 413 kts | 308° |
| 2026-04-24 03:58 | 20.19389 | -99.32604 | 26144 ft | 415 kts | 308° |
| 2026-04-24 03:58 | 20.21180 | -99.35024 | 26538 ft | 417 kts | 309° |
| 2026-04-24 03:58 | 20.23003 | -99.37440 | 26936 ft | 420 kts | 309° |
| 2026-04-24 03:59 | 20.24850 | -99.39852 | 27404 ft | 422 kts | 309° |
| 2026-04-24 03:59 | 20.26717 | -99.42273 | 27853 ft | 424 kts | 309° |
| 2026-04-24 03:59 | 20.28601 | -99.44709 | 28309 ft | 427 kts | 309° |
| 2026-04-24 03:59 | 20.30494 | -99.47156 | 28781 ft | 430 kts | 309° |
| 2026-04-24 04:00 | 20.32402 | -99.49624 | 29248 ft | 433 kts | 309° |
| 2026-04-24 04:00 | 20.34322 | -99.52110 | 29756 ft | 435 kts | 309° |
| 2026-04-24 04:00 | 20.36226 | -99.54577 | 30202 ft | 439 kts | 309° |
| 2026-04-24 04:00 | 20.38168 | -99.57093 | 30674 ft | 440 kts | 309° |
| 2026-04-24 04:01 | 20.40117 | -99.59622 | 31144 ft | 443 kts | 309° |
| 2026-04-24 04:01 | 20.42077 | -99.62165 | 31598 ft | 445 kts | 309° |
| 2026-04-24 04:01 | 20.44046 | -99.64722 | 32046 ft | 447 kts | 309° |
| 2026-04-24 04:01 | 20.46026 | -99.67295 | 32479 ft | 450 kts | 309° |
| 2026-04-24 04:02 | 20.48014 | -99.69878 | 32934 ft | 452 kts | 309° |
| 2026-04-24 04:02 | 20.50014 | -99.72479 | 33362 ft | 454 kts | 309° |
| 2026-04-24 04:02 | 20.52021 | -99.75089 | 33785 ft | 457 kts | 309° |
| 2026-04-24 04:02 | 20.54041 | -99.77718 | 34190 ft | 459 kts | 309° |
| 2026-04-24 04:03 | 20.56046 | -99.80330 | 34538 ft | 462 kts | 309° |
| 2026-04-24 04:03 | 20.58082 | -99.82981 | 35051 ft | 462 kts | 309° |
| 2026-04-24 04:03 | 20.60117 | -99.85633 | 35506 ft | 462 kts | 309° |
| 2026-04-24 04:03 | 20.62153 | -99.88287 | 36037 ft | 462 kts | 309° |
| 2026-04-24 04:04 | 20.64181 | -99.90933 | 36589 ft | 460 kts | 309° |
| 2026-04-24 04:04 | 20.66206 | -99.93575 | 37121 ft | 459 kts | 309° |
| 2026-04-24 04:04 | 20.68224 | -99.96210 | 37644 ft | 458 kts | 309° |
| 2026-04-24 04:04 | 20.70233 | -99.98834 | 38148 ft | 456 kts | 309° |
| 2026-04-24 04:05 | 20.72214 | -100.01423 | 38649 ft | 455 kts | 309° |
| 2026-04-24 04:05 | 20.74212 | -100.04036 | 39087 ft | 454 kts | 309° |
| 2026-04-24 04:05 | 20.76207 | -100.06645 | 39497 ft | 452 kts | 308° |
| 2026-04-24 04:05 | 20.78193 | -100.09244 | 39891 ft | 451 kts | 308° |
| 2026-04-24 04:06 | 20.80176 | -100.11841 | 40123 ft | 454 kts | 308° |
| 2026-04-24 04:06 | 20.84183 | -100.17090 | 40101 ft | 452 kts | 308° |
| 2026-04-24 04:07 | 20.88146 | -100.22287 | 40031 ft | 453 kts | 308° |
| 2026-04-24 04:07 | 20.92101 | -100.27479 | 39978 ft | 453 kts | 308° |
| 2026-04-24 04:08 | 20.96081 | -100.32706 | 39917 ft | 453 kts | 308° |
| 2026-04-24 04:08 | 21.00060 | -100.37940 | 39920 ft | 453 kts | 308° |
| 2026-04-24 04:09 | 21.04036 | -100.43173 | 39909 ft | 453 kts | 308° |
| 2026-04-24 04:09 | 21.07983 | -100.48373 | 39903 ft | 453 kts | 308° |
| 2026-04-24 04:10 | 21.11955 | -100.53610 | 39899 ft | 453 kts | 308° |
| 2026-04-24 04:10 | 21.15921 | -100.58846 | 39877 ft | 453 kts | 308° |
| 2026-04-24 04:11 | 21.21888 | -100.66731 | 39870 ft | 455 kts | 308° |
| 2026-04-24 04:11 | 21.25848 | -100.71970 | 39882 ft | 456 kts | 308° |
| 2026-04-24 04:12 | 21.29842 | -100.77260 | 39890 ft | 457 kts | 308° |
| 2026-04-24 04:12 | 21.33844 | -100.82565 | 39900 ft | 458 kts | 308° |
| 2026-04-24 04:13 | 21.37849 | -100.87879 | 39912 ft | 458 kts | 308° |
| 2026-04-24 04:13 | 21.41827 | -100.93162 | 39911 ft | 458 kts | 308° |
| 2026-04-24 04:14 | 21.45828 | -100.98481 | 39918 ft | 458 kts | 308° |
| 2026-04-24 04:14 | 21.49835 | -101.03782 | 39929 ft | 457 kts | 308° |
| 2026-04-24 04:15 | 21.53810 | -101.09094 | 39917 ft | 456 kts | 308° |
| 2026-04-24 04:15 | 21.57749 | -101.14359 | 39907 ft | 455 kts | 308° |
| 2026-04-24 04:16 | 21.61711 | -101.19648 | 39892 ft | 454 kts | 308° |
| 2026-04-24 04:16 | 21.65665 | -101.24930 | 39885 ft | 453 kts | 308° |
| 2026-04-24 04:17 | 21.69615 | -101.30211 | 39877 ft | 453 kts | 308° |
| 2026-04-24 04:17 | 21.73536 | -101.35459 | 39893 ft | 453 kts | 308° |
| 2026-04-24 04:18 | 21.77480 | -101.40743 | 39904 ft | 453 kts | 308° |
| 2026-04-24 04:18 | 21.81415 | -101.46021 | 39911 ft | 452 kts | 308° |
| 2026-04-24 04:19 | 21.85348 | -101.51300 | 39894 ft | 452 kts | 308° |
| 2026-04-24 04:19 | 21.88613 | -101.55687 | 39899 ft | 452 kts | 308° |
| 2026-04-24 04:20 | 21.93177 | -101.61825 | 39894 ft | 452 kts | 308° |
| 2026-04-24 04:20 | 21.96466 | -101.66253 | 39890 ft | 452 kts | 308° |
| 2026-04-24 04:21 | 22.00364 | -101.71506 | 39898 ft | 452 kts | 307° |
| 2026-04-24 04:21 | 22.04287 | -101.76796 | 39916 ft | 451 kts | 307° |
| 2026-04-24 04:22 | 22.08202 | -101.82082 | 39909 ft | 451 kts | 307° |
| 2026-04-24 04:22 | 22.12111 | -101.87364 | 39908 ft | 450 kts | 307° |
| 2026-04-24 04:23 | 22.15987 | -101.92608 | 39892 ft | 450 kts | 307° |
| 2026-04-24 04:23 | 22.19880 | -101.97879 | 39894 ft | 449 kts | 307° |
| 2026-04-24 04:24 | 22.23765 | -102.03145 | 39872 ft | 448 kts | 307° |
| 2026-04-24 04:24 | 22.27646 | -102.08411 | 39866 ft | 448 kts | 307° |
| 2026-04-24 04:25 | 22.31500 | -102.13646 | 39871 ft | 449 kts | 307° |
| 2026-04-24 04:25 | 22.35383 | -102.18925 | 39923 ft | 449 kts | 307° |
| 2026-04-24 04:26 | 22.39268 | -102.24210 | 39918 ft | 449 kts | 307° |
| 2026-04-24 04:26 | 22.43150 | -102.29499 | 39924 ft | 449 kts | 307° |
| 2026-04-24 04:27 | 22.47004 | -102.34754 | 39924 ft | 449 kts | 307° |
| 2026-04-24 04:27 | 22.50880 | -102.40044 | 39921 ft | 449 kts | 307° |
| 2026-04-24 04:28 | 22.54757 | -102.45342 | 39919 ft | 449 kts | 307° |
| 2026-04-24 04:28 | 22.58633 | -102.50644 | 39972 ft | 449 kts | 307° |
| 2026-04-24 04:29 | 22.62481 | -102.55911 | 40049 ft | 449 kts | 307° |
| 2026-04-24 04:29 | 22.66350 | -102.61213 | 40104 ft | 448 kts | 307° |
| 2026-04-24 04:30 | 22.70212 | -102.66512 | 40158 ft | 448 kts | 307° |
| 2026-04-24 04:30 | 22.74064 | -102.71801 | 40169 ft | 447 kts | 307° |
| 2026-04-24 04:31 | 22.77909 | -102.77086 | 40183 ft | 446 kts | 306° |
| 2026-04-24 04:31 | 22.81718 | -102.82327 | 40169 ft | 446 kts | 306° |
| 2026-04-24 04:32 | 22.85614 | -102.87697 | 40153 ft | 462 kts | 306° |
| 2026-04-24 04:32 | 22.89625 | -102.93226 | 40119 ft | 463 kts | 306° |
| 2026-04-24 04:33 | 22.93595 | -102.98703 | 40075 ft | 462 kts | 306° |
| 2026-04-24 04:33 | 22.97568 | -103.04193 | 40018 ft | 463 kts | 306° |
| 2026-04-24 04:34 | 23.01516 | -103.09656 | 40018 ft | 463 kts | 306° |
| 2026-04-24 04:34 | 23.05493 | -103.15162 | 40017 ft | 464 kts | 306° |
| 2026-04-24 04:35 | 23.09474 | -103.20680 | 40020 ft | 464 kts | 306° |
| 2026-04-24 04:35 | 23.13453 | -103.26203 | 40021 ft | 464 kts | 306° |
| 2026-04-24 04:36 | 23.17392 | -103.31674 | 40023 ft | 464 kts | 306° |
| 2026-04-24 04:36 | 23.21365 | -103.37199 | 40029 ft | 462 kts | 306° |
| 2026-04-24 04:37 | 23.25324 | -103.42710 | 40031 ft | 462 kts | 306° |
| 2026-04-24 04:37 | 23.29278 | -103.48221 | 40016 ft | 462 kts | 306° |
| 2026-04-24 04:38 | 23.33228 | -103.53733 | 40031 ft | 462 kts | 306° |
| 2026-04-24 04:38 | 23.37156 | -103.59218 | 40026 ft | 462 kts | 306° |
| 2026-04-24 04:39 | 23.41105 | -103.64740 | 40032 ft | 463 kts | 306° |
| 2026-04-24 04:39 | 23.45051 | -103.70265 | 40036 ft | 462 kts | 306° |
| 2026-04-24 04:40 | 23.48992 | -103.75786 | 40034 ft | 462 kts | 305° |
| 2026-04-24 04:40 | 23.52910 | -103.81279 | 40025 ft | 462 kts | 305° |
| 2026-04-24 04:41 | 23.56852 | -103.86810 | 40025 ft | 463 kts | 305° |
| 2026-04-24 04:41 | 23.60802 | -103.92360 | 40031 ft | 463 kts | 305° |
| 2026-04-24 04:42 | 23.65018 | -103.97684 | 40020 ft | 466 kts | 311° |
| 2026-04-24 04:42 | 23.69520 | -104.02762 | 40014 ft | 466 kts | 310° |
| 2026-04-24 04:43 | 23.73988 | -104.07816 | 40013 ft | 465 kts | 310° |
| 2026-04-24 04:43 | 23.78478 | -104.12896 | 39987 ft | 464 kts | 310° |
| 2026-04-24 04:44 | 23.81697 | -104.16542 | 39998 ft | 465 kts | 310° |
| 2026-04-24 04:44 | 23.86181 | -104.21624 | 39984 ft | 465 kts | 310° |
| 2026-04-24 04:45 | 23.90643 | -104.26687 | 39984 ft | 466 kts | 310° |
| 2026-04-24 04:45 | 23.95135 | -104.31788 | 39972 ft | 465 kts | 310° |
| 2026-04-24 04:46 | 23.99622 | -104.36890 | 39974 ft | 466 kts | 310° |
| 2026-04-24 04:46 | 24.04111 | -104.41999 | 39977 ft | 466 kts | 310° |
| 2026-04-24 04:47 | 24.08566 | -104.47077 | 39959 ft | 466 kts | 310° |
| 2026-04-24 04:47 | 24.13050 | -104.52194 | 39968 ft | 466 kts | 310° |
| 2026-04-24 04:48 | 24.17530 | -104.57314 | 39972 ft | 466 kts | 310° |
| 2026-04-24 04:48 | 24.20098 | -104.60250 | 39973 ft | 466 kts | 310° |
| 2026-04-24 04:49 | 24.24576 | -104.65377 | 39996 ft | 466 kts | 310° |
| 2026-04-24 04:49 | 24.29022 | -104.70471 | 39991 ft | 465 kts | 310° |
| 2026-04-24 04:50 | 24.33469 | -104.75572 | 39975 ft | 462 kts | 309° |
| 2026-04-24 04:50 | 24.37915 | -104.80675 | 39965 ft | 463 kts | 310° |
| 2026-04-24 04:51 | 24.42355 | -104.85782 | 39959 ft | 462 kts | 309° |
| 2026-04-24 04:51 | 24.46765 | -104.90859 | 39947 ft | 462 kts | 309° |
| 2026-04-24 04:52 | 24.51206 | -104.95975 | 39966 ft | 463 kts | 309° |
| 2026-04-24 04:52 | 24.55644 | -105.01095 | 39948 ft | 463 kts | 309° |
| 2026-04-24 04:53 | 24.60071 | -105.06206 | 39952 ft | 460 kts | 309° |
| 2026-04-24 04:53 | 24.64449 | -105.11267 | 39969 ft | 460 kts | 309° |
| 2026-04-24 04:54 | 24.68852 | -105.16361 | 39967 ft | 461 kts | 309° |
| 2026-04-24 04:54 | 24.73265 | -105.21475 | 39945 ft | 460 kts | 309° |
| 2026-04-24 04:55 | 24.77671 | -105.26585 | 39975 ft | 460 kts | 309° |
| 2026-04-24 04:55 | 24.82053 | -105.31673 | 39974 ft | 462 kts | 309° |
| 2026-04-24 04:56 | 24.86462 | -105.36797 | 39979 ft | 459 kts | 309° |
| 2026-04-24 04:56 | 24.90849 | -105.41902 | 39979 ft | 459 kts | 308° |
| 2026-04-24 04:57 | 24.95236 | -105.47012 | 39962 ft | 458 kts | 308° |
| 2026-04-24 04:57 | 24.99585 | -105.52087 | 39988 ft | 459 kts | 308° |
| 2026-04-24 04:58 | 25.03970 | -105.57204 | 39989 ft | 459 kts | 308° |
| 2026-04-24 04:58 | 25.08358 | -105.62332 | 39967 ft | 459 kts | 308° |
| 2026-04-24 04:59 | 25.12733 | -105.67448 | 39990 ft | 456 kts | 308° |
| 2026-04-24 04:59 | 25.17039 | -105.72492 | 39980 ft | 455 kts | 308° |
| 2026-04-24 05:00 | 25.21380 | -105.77585 | 39983 ft | 455 kts | 308° |
| 2026-04-24 05:00 | 25.25717 | -105.82676 | 40015 ft | 456 kts | 308° |
| 2026-04-24 05:01 | 25.30059 | -105.87782 | 40011 ft | 456 kts | 308° |
| 2026-04-24 05:01 | 25.34361 | -105.92839 | 40035 ft | 454 kts | 308° |
| 2026-04-24 05:02 | 25.38693 | -105.97946 | 40044 ft | 455 kts | 307° |
| 2026-04-24 05:02 | 25.43005 | -106.03029 | 40028 ft | 453 kts | 307° |
| 2026-04-24 05:03 | 25.47315 | -106.08121 | 40047 ft | 453 kts | 307° |
| 2026-04-24 05:03 | 25.51598 | -106.13184 | 40045 ft | 454 kts | 307° |
| 2026-04-24 05:04 | 25.55910 | -106.18286 | 40045 ft | 453 kts | 307° |
| 2026-04-24 05:04 | 25.60220 | -106.23392 | 40062 ft | 454 kts | 307° |
| 2026-04-24 05:05 | 25.64529 | -106.28502 | 40098 ft | 453 kts | 307° |
| 2026-04-24 05:05 | 25.68779 | -106.33544 | 40055 ft | 448 kts | 307° |
| 2026-04-24 05:06 | 25.73041 | -106.38619 | 40082 ft | 455 kts | 307° |
| 2026-04-24 05:06 | 25.77364 | -106.43761 | 40082 ft | 456 kts | 307° |
| 2026-04-24 05:07 | 25.81694 | -106.48914 | 40091 ft | 456 kts | 307° |
| 2026-04-24 05:07 | 25.86013 | -106.54061 | 40086 ft | 456 kts | 307° |
| 2026-04-24 05:08 | 25.90336 | -106.59226 | 40135 ft | 459 kts | 307° |
| 2026-04-24 05:08 | 25.94626 | -106.64351 | 40096 ft | 451 kts | 307° |
| 2026-04-24 05:09 | 25.98896 | -106.69469 | 40094 ft | 452 kts | 307° |
| 2026-04-24 05:09 | 26.03201 | -106.74634 | 40097 ft | 456 kts | 307° |
| 2026-04-24 05:10 | 26.07479 | -106.79762 | 40088 ft | 457 kts | 307° |
| 2026-04-24 05:10 | 26.11790 | -106.84938 | 40087 ft | 455 kts | 307° |
| 2026-04-24 05:11 | 26.16091 | -106.90110 | 40118 ft | 455 kts | 307° |
| 2026-04-24 05:11 | 26.20371 | -106.95254 | 40075 ft | 451 kts | 307° |
| 2026-04-24 05:12 | 26.24602 | -107.00361 | 40079 ft | 452 kts | 307° |
| 2026-04-24 05:12 | 26.28862 | -107.05506 | 40055 ft | 453 kts | 307° |
| 2026-04-24 05:13 | 26.35288 | -107.13269 | 40058 ft | 455 kts | 307° |
| 2026-04-24 05:14 | 26.39537 | -107.18414 | 40081 ft | 455 kts | 307° |
| 2026-04-24 05:14 | 26.43815 | -107.23599 | 40060 ft | 453 kts | 306° |
| 2026-04-24 05:15 | 26.48076 | -107.28767 | 40059 ft | 453 kts | 306° |
| 2026-04-24 05:15 | 26.52338 | -107.33944 | 40055 ft | 452 kts | 307° |
| 2026-04-24 05:16 | 26.56575 | -107.39087 | 40058 ft | 453 kts | 306° |
| 2026-04-24 05:16 | 26.60839 | -107.44288 | 40056 ft | 457 kts | 306° |
| 2026-04-24 05:17 | 26.65112 | -107.49493 | 40051 ft | 452 kts | 306° |
| 2026-04-24 05:17 | 26.69353 | -107.54673 | 40051 ft | 453 kts | 306° |
| 2026-04-24 05:18 | 26.73573 | -107.59826 | 40046 ft | 452 kts | 306° |
| 2026-04-24 05:18 | 26.77807 | -107.65004 | 40030 ft | 451 kts | 306° |
| 2026-04-24 05:19 | 26.82051 | -107.70207 | 40037 ft | 453 kts | 306° |
| 2026-04-24 05:19 | 26.86276 | -107.75383 | 40037 ft | 454 kts | 306° |
| 2026-04-24 05:20 | 26.90519 | -107.80591 | 40017 ft | 452 kts | 306° |
| 2026-04-24 05:20 | 26.94736 | -107.85772 | 40021 ft | 448 kts | 306° |
| 2026-04-24 05:21 | 26.98941 | -107.90945 | 40009 ft | 448 kts | 306° |
| 2026-04-24 05:21 | 27.03145 | -107.96128 | 40015 ft | 449 kts | 305° |
| 2026-04-24 05:22 | 27.07318 | -108.01282 | 40024 ft | 449 kts | 306° |
| 2026-04-24 05:22 | 27.11520 | -108.06466 | 40009 ft | 449 kts | 305° |
| 2026-04-24 05:23 | 27.15719 | -108.11658 | 40016 ft | 450 kts | 305° |
| 2026-04-24 05:23 | 27.19919 | -108.16856 | 40019 ft | 447 kts | 305° |
| 2026-04-24 05:24 | 27.24069 | -108.21992 | 40014 ft | 446 kts | 305° |
| 2026-04-24 05:24 | 27.28230 | -108.27160 | 40018 ft | 447 kts | 305° |
| 2026-04-24 05:25 | 27.32400 | -108.32340 | 40026 ft | 447 kts | 305° |
| 2026-04-24 05:25 | 27.36564 | -108.37520 | 40030 ft | 447 kts | 305° |
| 2026-04-24 05:26 | 27.40701 | -108.42671 | 40031 ft | 447 kts | 305° |
| 2026-04-24 05:26 | 27.44867 | -108.47864 | 40018 ft | 445 kts | 304° |
| 2026-04-24 05:27 | 27.49014 | -108.53043 | 40019 ft | 446 kts | 304° |
| 2026-04-24 05:27 | 27.53166 | -108.58236 | 40003 ft | 446 kts | 304° |
| 2026-04-24 05:28 | 27.57286 | -108.63391 | 40005 ft | 446 kts | 304° |
| 2026-04-24 05:28 | 27.61431 | -108.68582 | 40005 ft | 445 kts | 304° |
| 2026-04-24 05:29 | 27.65578 | -108.73783 | 40000 ft | 445 kts | 304° |
| 2026-04-24 05:29 | 27.69695 | -108.78971 | 40007 ft | 448 kts | 304° |
| 2026-04-24 05:30 | 27.73819 | -108.84150 | 39995 ft | 446 kts | 304° |
| 2026-04-24 05:30 | 27.77972 | -108.89378 | 39981 ft | 447 kts | 304° |
| 2026-04-24 05:31 | 27.82117 | -108.94603 | 40001 ft | 446 kts | 304° |
| 2026-04-24 05:31 | 27.86286 | -108.99865 | 39986 ft | 447 kts | 304° |
| 2026-04-24 05:32 | 27.90383 | -109.05038 | 40023 ft | 444 kts | 304° |
| 2026-04-24 05:32 | 27.94492 | -109.10242 | 39998 ft | 443 kts | 304° |
| 2026-04-24 05:33 | 27.98604 | -109.15451 | 39982 ft | 441 kts | 303° |
| 2026-04-24 05:33 | 28.02690 | -109.20643 | 39989 ft | 442 kts | 303° |
| 2026-04-24 05:34 | 28.08809 | -109.28410 | 39973 ft | 441 kts | 304° |
| 2026-04-24 05:34 | 28.12897 | -109.33611 | 39972 ft | 443 kts | 303° |
| 2026-04-24 05:35 | 28.16952 | -109.38770 | 39979 ft | 434 kts | 303° |
| 2026-04-24 05:35 | 28.20981 | -109.43919 | 39957 ft | 438 kts | 303° |
| 2026-04-24 05:36 | 28.25009 | -109.49066 | 39954 ft | 440 kts | 303° |
| 2026-04-24 05:36 | 28.29066 | -109.54270 | 39963 ft | 441 kts | 303° |
| 2026-04-24 05:37 | 28.33134 | -109.59469 | 39940 ft | 440 kts | 303° |
| 2026-04-24 05:37 | 28.37204 | -109.64664 | 39982 ft | 440 kts | 303° |
| 2026-04-24 05:38 | 28.41220 | -109.69789 | 39954 ft | 435 kts | 303° |
| 2026-04-24 05:38 | 28.45248 | -109.74941 | 39945 ft | 437 kts | 303° |
| 2026-04-24 05:39 | 28.49278 | -109.80107 | 39942 ft | 437 kts | 303° |
| 2026-04-24 05:39 | 28.53318 | -109.85293 | 39943 ft | 438 kts | 303° |
| 2026-04-24 05:40 | 28.57331 | -109.90449 | 39948 ft | 438 kts | 303° |
| 2026-04-24 05:40 | 28.61365 | -109.95637 | 39942 ft | 436 kts | 303° |
| 2026-04-24 05:41 | 28.65364 | -110.00787 | 39944 ft | 434 kts | 303° |
| 2026-04-24 05:41 | 28.69358 | -110.05942 | 39945 ft | 436 kts | 303° |
| 2026-04-24 05:42 | 28.73357 | -110.11109 | 39941 ft | 435 kts | 303° |
| 2026-04-24 05:42 | 28.77375 | -110.16302 | 39943 ft | 436 kts | 303° |
| 2026-04-24 05:43 | 28.81375 | -110.21476 | 39945 ft | 435 kts | 302° |
| 2026-04-24 05:43 | 28.85364 | -110.26647 | 39942 ft | 432 kts | 302° |
| 2026-04-24 05:44 | 28.89291 | -110.31745 | 39943 ft | 431 kts | 302° |
| 2026-04-24 05:44 | 28.93246 | -110.36888 | 39939 ft | 431 kts | 302° |
| 2026-04-24 05:45 | 28.97201 | -110.42035 | 39941 ft | 431 kts | 302° |
| 2026-04-24 05:45 | 29.01153 | -110.47183 | 39941 ft | 431 kts | 302° |
| 2026-04-24 05:46 | 29.05086 | -110.52314 | 39930 ft | 432 kts | 302° |
| 2026-04-24 05:46 | 29.09040 | -110.57481 | 39933 ft | 432 kts | 302° |
| 2026-04-24 05:47 | 29.12994 | -110.62653 | 39927 ft | 432 kts | 302° |
| 2026-04-24 05:47 | 29.16944 | -110.67824 | 39932 ft | 432 kts | 302° |
| 2026-04-24 05:48 | 29.20864 | -110.72960 | 39930 ft | 430 kts | 302° |
| 2026-04-24 05:48 | 29.24809 | -110.78142 | 39940 ft | 432 kts | 302° |
| 2026-04-24 05:49 | 29.28758 | -110.83333 | 39964 ft | 432 kts | 302° |
| 2026-04-24 05:49 | 29.32685 | -110.88497 | 39936 ft | 429 kts | 302° |
| 2026-04-24 05:50 | 29.36585 | -110.93639 | 39934 ft | 430 kts | 302° |
| 2026-04-24 05:50 | 29.40512 | -110.98821 | 39932 ft | 430 kts | 302° |
| 2026-04-24 05:51 | 29.44434 | -111.04002 | 39926 ft | 430 kts | 302° |
| 2026-04-24 05:51 | 29.48351 | -111.09184 | 39923 ft | 430 kts | 302° |
| 2026-04-24 05:52 | 29.52257 | -111.14363 | 39912 ft | 433 kts | 301° |
| 2026-04-24 05:52 | 29.56216 | -111.19612 | 39922 ft | 435 kts | 302° |
| 2026-04-24 05:53 | 29.60175 | -111.24867 | 39937 ft | 435 kts | 301° |
| 2026-04-24 05:53 | 29.64130 | -111.30126 | 39939 ft | 435 kts | 301° |
| 2026-04-24 05:54 | 29.68055 | -111.35352 | 39925 ft | 435 kts | 301° |
| 2026-04-24 05:54 | 29.72009 | -111.40624 | 39919 ft | 434 kts | 301° |
| 2026-04-24 05:55 | 29.75947 | -111.45878 | 39931 ft | 432 kts | 301° |
| 2026-04-24 05:55 | 29.79873 | -111.51129 | 39932 ft | 433 kts | 301° |
| 2026-04-24 05:56 | 29.83774 | -111.56351 | 39936 ft | 433 kts | 301° |
| 2026-04-24 05:56 | 29.87701 | -111.61615 | 39937 ft | 433 kts | 301° |
| 2026-04-24 05:57 | 29.91624 | -111.66879 | 39936 ft | 433 kts | 301° |
| 2026-04-24 05:57 | 29.95544 | -111.72146 | 39956 ft | 432 kts | 301° |
| 2026-04-24 05:58 | 29.99409 | -111.77344 | 39936 ft | 430 kts | 301° |
| 2026-04-24 05:58 | 30.03302 | -111.82594 | 39936 ft | 431 kts | 301° |
| 2026-04-24 05:59 | 30.07204 | -111.87858 | 39935 ft | 431 kts | 301° |
| 2026-04-24 05:59 | 30.11103 | -111.93124 | 39932 ft | 431 kts | 301° |
| 2026-04-24 06:00 | 30.14972 | -111.98358 | 39938 ft | 431 kts | 301° |
| 2026-04-24 06:00 | 30.18851 | -112.03609 | 39929 ft | 427 kts | 301° |
| 2026-04-24 06:01 | 30.22717 | -112.08855 | 39926 ft | 428 kts | 301° |
| 2026-04-24 06:01 | 30.26573 | -112.14094 | 39917 ft | 430 kts | 301° |
| 2026-04-24 06:02 | 30.30447 | -112.19364 | 39924 ft | 430 kts | 301° |
| 2026-04-24 06:02 | 30.34296 | -112.24603 | 39919 ft | 430 kts | 301° |
| 2026-04-24 06:03 | 30.38168 | -112.29882 | 39940 ft | 429 kts | 301° |
| 2026-04-24 06:03 | 30.42022 | -112.35142 | 39918 ft | 428 kts | 301° |
| 2026-04-24 06:04 | 30.45877 | -112.40415 | 39919 ft | 429 kts | 301° |
| 2026-04-24 06:04 | 30.49704 | -112.45654 | 39917 ft | 428 kts | 301° |
| 2026-04-24 06:05 | 30.53560 | -112.50942 | 39919 ft | 430 kts | 301° |
| 2026-04-24 06:05 | 30.57419 | -112.56237 | 39922 ft | 430 kts | 301° |
| 2026-04-24 06:06 | 30.61270 | -112.61530 | 39917 ft | 429 kts | 301° |
| 2026-04-24 06:06 | 30.65115 | -112.66823 | 39922 ft | 429 kts | 301° |
| 2026-04-24 06:07 | 30.68933 | -112.72086 | 39926 ft | 429 kts | 301° |
| 2026-04-24 06:07 | 30.72773 | -112.77386 | 39927 ft | 429 kts | 301° |
| 2026-04-24 06:08 | 30.76623 | -112.82709 | 39927 ft | 430 kts | 301° |
| 2026-04-24 06:08 | 30.80473 | -112.88034 | 39937 ft | 429 kts | 300° |
| 2026-04-24 06:09 | 30.84278 | -112.93306 | 39926 ft | 428 kts | 300° |
| 2026-04-24 06:09 | 30.88107 | -112.98621 | 39926 ft | 428 kts | 300° |
| 2026-04-24 06:10 | 30.91936 | -113.03941 | 39926 ft | 428 kts | 300° |
| 2026-04-24 06:11 | 30.97674 | -113.11929 | 39915 ft | 430 kts | 300° |
| 2026-04-24 06:11 | 31.01483 | -113.17241 | 39933 ft | 429 kts | 300° |
| 2026-04-24 06:12 | 31.05312 | -113.22586 | 39925 ft | 429 kts | 300° |
| 2026-04-24 06:12 | 31.09142 | -113.27941 | 39928 ft | 430 kts | 300° |
| 2026-04-24 06:13 | 31.12970 | -113.33299 | 39923 ft | 429 kts | 300° |
| 2026-04-24 06:13 | 31.16763 | -113.38619 | 39923 ft | 430 kts | 300° |
| 2026-04-24 06:14 | 31.20584 | -113.43983 | 39912 ft | 430 kts | 300° |
| 2026-04-24 06:14 | 31.24425 | -113.49390 | 39915 ft | 434 kts | 300° |
| 2026-04-24 06:15 | 31.28260 | -113.54781 | 39923 ft | 430 kts | 300° |
| 2026-04-24 06:15 | 31.32058 | -113.60137 | 39921 ft | 431 kts | 300° |
| 2026-04-24 06:16 | 31.35877 | -113.65530 | 39912 ft | 431 kts | 300° |
| 2026-04-24 06:16 | 31.39697 | -113.70932 | 39954 ft | 431 kts | 300° |
| 2026-04-24 06:17 | 31.43513 | -113.76334 | 39905 ft | 431 kts | 300° |
| 2026-04-24 06:17 | 31.47333 | -113.81752 | 39903 ft | 431 kts | 300° |
| 2026-04-24 06:18 | 31.51128 | -113.87139 | 39907 ft | 432 kts | 300° |
| 2026-04-24 06:18 | 31.54952 | -113.92576 | 39914 ft | 432 kts | 300° |
| 2026-04-24 06:19 | 31.58770 | -113.98012 | 39910 ft | 432 kts | 300° |
| 2026-04-24 06:19 | 31.62588 | -114.03453 | 39907 ft | 425 kts | 301° |
| 2026-04-24 06:20 | 31.66377 | -114.08876 | 39909 ft | 442 kts | 300° |
| 2026-04-24 06:20 | 31.70345 | -114.14568 | 39911 ft | 459 kts | 301° |
| 2026-04-24 06:20 | 31.72381 | -114.17482 | 40156 ft | 460 kts | 301° |
| 2026-04-24 06:21 | 31.74414 | -114.20342 | 40848 ft | 454 kts | 301° |
| 2026-04-24 06:21 | 31.76451 | -114.23155 | 41197 ft | 448 kts | 302° |
| 2026-04-24 06:21 | 31.78477 | -114.25887 | 40941 ft | 438 kts | 302° |
| 2026-04-24 06:21 | 31.80471 | -114.28564 | 40648 ft | 435 kts | 303° |
| 2026-04-24 06:22 | 31.82432 | -114.31254 | 40142 ft | 430 kts | 300° |
| 2026-04-24 06:22 | 31.84209 | -114.33991 | 39939 ft | 426 kts | 298° |
| 2026-04-24 06:22 | 31.86007 | -114.36801 | 39910 ft | 432 kts | 299° |
| 2026-04-24 06:23 | 31.89735 | -114.42379 | 39908 ft | 435 kts | 300° |
| 2026-04-24 06:23 | 31.93549 | -114.47911 | 39908 ft | 435 kts | 301° |
| 2026-04-24 06:24 | 31.97375 | -114.53435 | 39906 ft | 435 kts | 301° |
| 2026-04-24 06:24 | 32.01181 | -114.58943 | 39907 ft | 439 kts | 301° |
| 2026-04-24 06:25 | 32.05032 | -114.64520 | 39893 ft | 439 kts | 301° |
| 2026-04-24 06:25 | 32.08882 | -114.70103 | 39899 ft | 439 kts | 301° |
| 2026-04-24 06:26 | 32.12729 | -114.75692 | 39890 ft | 439 kts | 301° |
| 2026-04-24 06:26 | 32.16545 | -114.81246 | 39897 ft | 439 kts | 301° |
| 2026-04-24 06:27 | 32.20390 | -114.86849 | 39897 ft | 440 kts | 301° |
| 2026-04-24 06:27 | 32.24242 | -114.92470 | 39894 ft | 440 kts | 301° |
| 2026-04-24 06:28 | 32.28084 | -114.98081 | 39888 ft | 432 kts | 301° |
| 2026-04-24 06:28 | 32.29948 | -115.00793 | 39894 ft | 418 kts | 301° |
| 2026-04-24 06:28 | 32.31766 | -115.03450 | 39891 ft | 415 kts | 301° |
| 2026-04-24 06:29 | 32.35130 | -115.08922 | 39898 ft | 412 kts | 295° |
| 2026-04-24 06:29 | 32.38191 | -115.14670 | 39888 ft | 414 kts | 296° |
| 2026-04-24 06:30 | 32.41284 | -115.20407 | 39901 ft | 414 kts | 296° |
| 2026-04-24 06:30 | 32.44373 | -115.26162 | 39893 ft | 413 kts | 295° |
| 2026-04-24 06:31 | 32.47385 | -115.31774 | 39394 ft | 402 kts | 295° |
| 2026-04-24 06:31 | 32.48878 | -115.34565 | 38827 ft | 400 kts | 295° |
| 2026-04-24 06:31 | 32.50365 | -115.37353 | 38131 ft | 400 kts | 295° |
| 2026-04-24 06:31 | 32.51850 | -115.40139 | 37326 ft | 401 kts | 295° |
| 2026-04-24 06:32 | 32.53339 | -115.42935 | 36498 ft | 402 kts | 295° |
| 2026-04-24 06:32 | 32.54833 | -115.45742 | 35669 ft | 404 kts | 296° |
| 2026-04-24 06:32 | 32.56343 | -115.48581 | 34690 ft | 410 kts | 296° |
| 2026-04-24 06:32 | 32.57868 | -115.51448 | 33829 ft | 412 kts | 296° |
| 2026-04-24 06:33 | 32.59375 | -115.54280 | 33037 ft | 411 kts | 297° |
| 2026-04-24 06:33 | 32.60893 | -115.57137 | 32274 ft | 408 kts | 297° |
| 2026-04-24 06:33 | 32.62374 | -115.59994 | 31587 ft | 406 kts | 297° |
| 2026-04-24 06:33 | 32.63835 | -115.62843 | 30869 ft | 404 kts | 297° |
| 2026-04-24 06:34 | 32.65292 | -115.65686 | 30234 ft | 401 kts | 297° |
| 2026-04-24 06:34 | 32.66736 | -115.68492 | 29591 ft | 397 kts | 298° |
| 2026-04-24 06:34 | 32.68170 | -115.71274 | 28883 ft | 393 kts | 298° |
| 2026-04-24 06:34 | 32.69592 | -115.74031 | 28203 ft | 390 kts | 298° |
| 2026-04-24 06:35 | 32.70982 | -115.76729 | 27533 ft | 387 kts | 298° |
| 2026-04-24 06:35 | 32.72381 | -115.79444 | 26812 ft | 386 kts | 298° |
| 2026-04-24 06:35 | 32.73779 | -115.82163 | 26207 ft | 383 kts | 298° |
| 2026-04-24 06:35 | 32.75157 | -115.84845 | 25991 ft | 380 kts | 298° |
| 2026-04-24 06:36 | 32.76539 | -115.87537 | 25915 ft | 382 kts | 298° |
| 2026-04-24 06:36 | 32.77925 | -115.90240 | 25937 ft | 383 kts | 298° |
| 2026-04-24 06:36 | 32.79310 | -115.92941 | 25940 ft | 383 kts | 298° |
| 2026-04-24 06:36 | 32.80698 | -115.95647 | 25940 ft | 382 kts | 298° |
| 2026-04-24 06:37 | 32.82060 | -115.98304 | 25938 ft | 381 kts | 298° |
| 2026-04-24 06:37 | 32.83264 | -116.01090 | 25942 ft | 378 kts | 288° |
| 2026-04-24 06:37 | 32.84156 | -116.04033 | 25957 ft | 378 kts | 288° |
| 2026-04-24 06:37 | 32.85049 | -116.06969 | 25963 ft | 377 kts | 288° |
| 2026-04-24 06:38 | 32.85948 | -116.09901 | 25969 ft | 378 kts | 288° |
| 2026-04-24 06:38 | 32.86852 | -116.12832 | 25968 ft | 377 kts | 288° |
| 2026-04-24 06:38 | 32.87757 | -116.15768 | 25995 ft | 379 kts | 288° |
| 2026-04-24 06:38 | 32.88665 | -116.18714 | 25973 ft | 380 kts | 288° |
| 2026-04-24 06:39 | 32.89574 | -116.21668 | 25974 ft | 380 kts | 288° |
| 2026-04-24 06:39 | 32.90469 | -116.24576 | 25976 ft | 380 kts | 288° |
| 2026-04-24 06:39 | 32.91377 | -116.27529 | 25988 ft | 378 kts | 288° |
| 2026-04-24 06:39 | 32.92271 | -116.30435 | 25786 ft | 371 kts | 288° |
| 2026-04-24 06:40 | 32.93159 | -116.33327 | 25103 ft | 373 kts | 288° |
| 2026-04-24 06:40 | 32.94048 | -116.36229 | 24480 ft | 372 kts | 288° |
| 2026-04-24 06:40 | 32.94929 | -116.39107 | 23984 ft | 369 kts | 288° |
| 2026-04-24 06:40 | 32.95805 | -116.41973 | 23735 ft | 368 kts | 288° |
| 2026-04-24 06:41 | 32.96683 | -116.44851 | 23601 ft | 370 kts | 288° |
| 2026-04-24 06:41 | 32.97558 | -116.47722 | 23444 ft | 367 kts | 288° |
| 2026-04-24 06:41 | 32.98418 | -116.50538 | 23293 ft | 367 kts | 288° |
| 2026-04-24 06:41 | 32.99287 | -116.53393 | 23120 ft | 367 kts | 288° |
| 2026-04-24 06:42 | 33.00157 | -116.56255 | 22897 ft | 367 kts | 288° |
| 2026-04-24 06:42 | 33.01025 | -116.59109 | 22662 ft | 366 kts | 287° |
| 2026-04-24 06:42 | 33.01892 | -116.61961 | 22435 ft | 366 kts | 288° |
| 2026-04-24 06:42 | 33.02757 | -116.64807 | 22203 ft | 365 kts | 287° |
| 2026-04-24 06:43 | 33.03618 | -116.67647 | 21982 ft | 364 kts | 287° |
| 2026-04-24 06:43 | 33.04477 | -116.70482 | 21748 ft | 363 kts | 287° |
| 2026-04-24 06:43 | 33.05320 | -116.73270 | 21496 ft | 362 kts | 287° |
| 2026-04-24 06:43 | 33.06173 | -116.76093 | 21280 ft | 361 kts | 287° |
| 2026-04-24 06:44 | 33.07023 | -116.78906 | 21060 ft | 361 kts | 287° |
| 2026-04-24 06:44 | 33.07871 | -116.81716 | 20827 ft | 360 kts | 287° |
| 2026-04-24 06:44 | 33.08717 | -116.84521 | 20616 ft | 359 kts | 287° |
| 2026-04-24 06:44 | 33.09559 | -116.87317 | 20385 ft | 358 kts | 287° |
| 2026-04-24 06:45 | 33.10401 | -116.90116 | 20133 ft | 359 kts | 287° |
| 2026-04-24 06:45 | 33.11241 | -116.92911 | 19764 ft | 357 kts | 287° |
| 2026-04-24 06:45 | 33.12066 | -116.95655 | 19389 ft | 356 kts | 287° |
| 2026-04-24 06:45 | 33.12896 | -116.98418 | 19022 ft | 353 kts | 287° |
| 2026-04-24 06:46 | 33.13724 | -117.01178 | 18653 ft | 353 kts | 287° |
| 2026-04-24 06:46 | 33.14548 | -117.03931 | 18289 ft | 352 kts | 287° |
| 2026-04-24 06:46 | 33.15369 | -117.06676 | 17870 ft | 350 kts | 287° |
| 2026-04-24 06:46 | 33.16184 | -117.09400 | 17446 ft | 348 kts | 287° |
| 2026-04-24 06:47 | 33.16992 | -117.12106 | 17044 ft | 346 kts | 287° |
| 2026-04-24 06:47 | 33.17800 | -117.14814 | 16633 ft | 345 kts | 287° |
| 2026-04-24 06:47 | 33.18601 | -117.17503 | 16233 ft | 343 kts | 288° |
| 2026-04-24 06:47 | 33.19391 | -117.20154 | 15862 ft | 343 kts | 288° |
| 2026-04-24 06:48 | 33.20186 | -117.22825 | 15468 ft | 342 kts | 288° |
| 2026-04-24 06:48 | 33.20981 | -117.25498 | 15085 ft | 340 kts | 288° |
| 2026-04-24 06:48 | 33.21770 | -117.28153 | 14696 ft | 339 kts | 288° |
| 2026-04-24 06:48 | 33.22555 | -117.30805 | 14334 ft | 338 kts | 287° |
| 2026-04-24 06:49 | 33.23159 | -117.33504 | 13966 ft | 336 kts | 280° |
| 2026-04-24 06:49 | 33.23562 | -117.36247 | 13567 ft | 334 kts | 279° |
| 2026-04-24 06:49 | 33.23978 | -117.38962 | 13064 ft | 330 kts | 279° |
| 2026-04-24 06:49 | 33.24401 | -117.41655 | 12436 ft | 329 kts | 279° |
| 2026-04-24 06:50 | 33.24816 | -117.44297 | 12128 ft | 328 kts | 279° |
| 2026-04-24 06:50 | 33.25234 | -117.46977 | 12050 ft | 328 kts | 279° |
| 2026-04-24 06:50 | 33.25651 | -117.49661 | 12048 ft | 329 kts | 279° |
| 2026-04-24 06:50 | 33.26196 | -117.52319 | 12052 ft | 331 kts | 287° |
| 2026-04-24 06:51 | 33.27101 | -117.54846 | 12051 ft | 329 kts | 296° |
| 2026-04-24 06:51 | 33.28279 | -117.57111 | 12059 ft | 311 kts | 301° |
| 2026-04-24 06:51 | 33.29437 | -117.59206 | 12057 ft | 293 kts | 300° |
| 2026-04-24 06:51 | 33.30509 | -117.61192 | 12055 ft | 276 kts | 300° |
| 2026-04-24 06:52 | 33.31504 | -117.63047 | 12050 ft | 261 kts | 300° |
| 2026-04-24 06:52 | 33.32458 | -117.64829 | 12049 ft | 250 kts | 300° |
| 2026-04-24 06:52 | 33.33387 | -117.66566 | 12053 ft | 247 kts | 300° |
| 2026-04-24 06:52 | 33.34311 | -117.68293 | 11931 ft | 246 kts | 300° |
| 2026-04-24 06:53 | 33.35237 | -117.70021 | 11751 ft | 247 kts | 300° |
| 2026-04-24 06:53 | 33.36160 | -117.71741 | 11431 ft | 246 kts | 300° |
| 2026-04-24 06:53 | 33.37085 | -117.73465 | 11087 ft | 246 kts | 300° |
| 2026-04-24 06:53 | 33.38008 | -117.75184 | 10787 ft | 245 kts | 300° |
| 2026-04-24 06:54 | 33.38926 | -117.76895 | 10478 ft | 244 kts | 300° |
| 2026-04-24 06:54 | 33.39829 | -117.78579 | 10193 ft | 243 kts | 300° |
| 2026-04-24 06:54 | 33.40743 | -117.80285 | 10057 ft | 243 kts | 300° |
| 2026-04-24 06:54 | 33.41649 | -117.81978 | 10027 ft | 242 kts | 300° |
| 2026-04-24 06:55 | 33.42559 | -117.83679 | 10025 ft | 243 kts | 300° |
| 2026-04-24 06:55 | 33.43472 | -117.85387 | 10039 ft | 243 kts | 300° |
| 2026-04-24 06:55 | 33.44382 | -117.87086 | 10036 ft | 242 kts | 300° |
| 2026-04-24 06:55 | 33.45287 | -117.88780 | 10029 ft | 242 kts | 300° |
| 2026-04-24 06:56 | 33.46194 | -117.90477 | 10029 ft | 242 kts | 300° |
| 2026-04-24 06:56 | 33.47118 | -117.92166 | 10034 ft | 243 kts | 305° |
| 2026-04-24 06:56 | 33.48364 | -117.93506 | 10032 ft | 249 kts | 326° |
| 2026-04-24 06:56 | 33.49978 | -117.94300 | 10032 ft | 253 kts | 337° |
| 2026-04-24 06:57 | 33.51640 | -117.94989 | 10033 ft | 252 kts | 336° |
| 2026-04-24 06:57 | 33.53286 | -117.95699 | 9944 ft | 251 kts | 335° |
| 2026-04-24 06:57 | 33.54930 | -117.96418 | 9806 ft | 250 kts | 335° |
| 2026-04-24 06:57 | 33.56560 | -117.97131 | 9462 ft | 250 kts | 336° |
| 2026-04-24 06:58 | 33.58193 | -117.97845 | 9139 ft | 250 kts | 336° |
| 2026-04-24 06:58 | 33.59824 | -117.98557 | 8818 ft | 249 kts | 336° |
| 2026-04-24 06:58 | 33.61449 | -117.99265 | 8505 ft | 248 kts | 337° |
| 2026-04-24 06:58 | 33.63081 | -117.99936 | 8205 ft | 248 kts | 340° |
| 2026-04-24 06:59 | 33.64714 | -118.00524 | 7920 ft | 248 kts | 341° |
| 2026-04-24 06:59 | 33.66353 | -118.01118 | 7698 ft | 243 kts | 341° |
| 2026-04-24 06:59 | 33.67941 | -118.01696 | 7567 ft | 236 kts | 341° |
| 2026-04-24 06:59 | 33.69506 | -118.02268 | 7322 ft | 235 kts | 341° |
| 2026-04-24 07:00 | 33.71066 | -118.02839 | 7065 ft | 234 kts | 342° |
| 2026-04-24 07:00 | 33.72622 | -118.03409 | 6816 ft | 233 kts | 342° |
| 2026-04-24 07:00 | 33.74169 | -118.03975 | 6560 ft | 233 kts | 342° |
| 2026-04-24 07:00 | 33.75711 | -118.04540 | 6319 ft | 229 kts | 342° |
| 2026-04-24 07:01 | 33.77189 | -118.05080 | 6227 ft | 222 kts | 343° |
| 2026-04-24 07:01 | 33.78650 | -118.05636 | 6021 ft | 219 kts | 338° |
| 2026-04-24 07:01 | 33.80057 | -118.06323 | 5803 ft | 217 kts | 338° |
| 2026-04-24 07:01 | 33.81461 | -118.07002 | 5574 ft | 217 kts | 338° |
| 2026-04-24 07:02 | 33.82860 | -118.07672 | 5355 ft | 215 kts | 338° |
| 2026-04-24 07:02 | 33.84220 | -118.08324 | 5284 ft | 205 kts | 338° |
| 2026-04-24 07:02 | 33.85510 | -118.08941 | 5161 ft | 194 kts | 337° |
| 2026-04-24 07:02 | 33.86750 | -118.09537 | 4830 ft | 191 kts | 337° |
| 2026-04-24 07:03 | 33.87952 | -118.10114 | 4282 ft | 185 kts | 337° |
| 2026-04-24 07:03 | 33.89153 | -118.10662 | 3725 ft | 189 kts | 343° |
| 2026-04-24 07:03 | 33.90450 | -118.10895 | 3192 ft | 185 kts | 355° |
| 2026-04-24 07:03 | 33.91704 | -118.11027 | 2675 ft | 178 kts | 354° |
| 2026-04-24 07:04 | 33.92927 | -118.11183 | 2300 ft | 177 kts | 354° |
| 2026-04-24 07:04 | 33.94154 | -118.11347 | 2220 ft | 178 kts | 354° |
| 2026-04-24 07:04 | 33.95390 | -118.11510 | 2224 ft | 179 kts | 354° |
| 2026-04-24 07:04 | 33.96610 | -118.11739 | 2064 ft | 176 kts | 340° |
| 2026-04-24 07:05 | 33.97501 | -118.12635 | 1656 ft | 165 kts | 298° |
| 2026-04-24 07:05 | 33.97805 | -118.13925 | 1268 ft | 157 kts | 275° |
| 2026-04-24 07:05 | 33.97804 | -118.15243 | 1174 ft | 162 kts | 263° |
| 2026-04-24 07:05 | 33.97700 | -118.16601 | 1627 ft | 164 kts | 265° |
| 2026-04-24 07:06 | 33.97594 | -118.17979 | 2153 ft | 166 kts | 262° |
| 2026-04-24 07:06 | 33.97385 | -118.19381 | 2225 ft | 170 kts | 256° |
| 2026-04-24 07:06 | 33.97180 | -118.20781 | 2222 ft | 170 kts | 262° |
| 2026-04-24 07:06 | 33.97044 | -118.22194 | 2226 ft | 169 kts | 262° |
| 2026-04-24 07:07 | 33.96898 | -118.23593 | 2225 ft | 169 kts | 262° |
| 2026-04-24 07:07 | 33.96755 | -118.25002 | 2227 ft | 170 kts | 262° |
| 2026-04-24 07:07 | 33.96469 | -118.27817 | 2225 ft | 169 kts | 262° |
| 2026-04-24 07:08 | 33.96327 | -118.29210 | 2012 ft | 170 kts | 262° |
| 2026-04-24 07:08 | 33.96189 | -118.30572 | 1756 ft | 158 kts | 262° |
| 2026-04-24 07:08 | 33.96056 | -118.31881 | 1525 ft | 157 kts | 262° |
| 2026-04-24 07:08 | 33.95923 | -118.33179 | 1311 ft | 156 kts | 261° |
| 2026-04-24 07:09 | 33.95792 | -118.34476 | 1102 ft | 156 kts | 261° |
| 2026-04-24 07:09 | 33.95705 | -118.35327 | 962 ft | 153 kts | 262° |
| 2026-04-24 07:09 | 33.95576 | -118.36591 | 749 ft | 150 kts | 262° |
| 2026-04-24 07:09 | 33.95449 | -118.37837 | 562 ft | 149 kts | 262° |
| 2026-04-24 07:10 | 33.95281 | -118.39477 | 290 ft | 148 kts | 262° |
| 2026-04-24 07:10 | 33.95146 | -118.40701 | 138 ft | 143 kts | 265° |
| 2026-04-24 07:10 | 33.95056 | -118.41672 | 129 ft | 88 kts | 262° |
| 2026-04-24 07:10 | 33.95012 | -118.42080 | 129 ft | 63 kts | 263° |
| 2026-04-24 07:11 | 33.94958 | -118.42467 | 126 ft | 37 kts | 252° |
| 2026-04-24 07:11 | 33.94866 | -118.42661 | 129 ft | 5 kts | 225° |
| 2026-04-24 07:12 | 33.94856 | -118.42673 | 125 ft | 1 kts | 224° |
| 2026-04-24 07:12 | 33.94835 | -118.42698 | 125 ft | 7 kts | 222° |
| 2026-04-24 07:13 | 33.94783 | -118.42739 | 126 ft | 11 kts | 206° |
| 2026-04-24 07:13 | 33.94711 | -118.42768 | 128 ft | 10 kts | 185° |
| 2026-04-24 07:13 | 33.94649 | -118.42738 | 127 ft | 10 kts | 117° |
| 2026-04-24 07:13 | 33.94641 | -118.42639 | 131 ft | 14 kts | 87° |
| 2026-04-24 07:14 | 33.94654 | -118.42506 | 131 ft | 18 kts | 81° |
| 2026-04-24 07:14 | 33.94676 | -118.42346 | 126 ft | 21 kts | 81° |
| 2026-04-24 07:14 | 33.94698 | -118.42166 | 129 ft | 23 kts | 83° |
| 2026-04-24 07:14 | 33.94710 | -118.41975 | 131 ft | 23 kts | 84° |
| 2026-04-24 07:15 | 33.94729 | -118.41793 | 127 ft | 13 kts | 82° |
| 2026-04-24 07:15 | 33.94743 | -118.41670 | 131 ft | 17 kts | 83° |
| 2026-04-24 07:15 | 33.94752 | -118.41571 | 128 ft | 13 kts | 83° |
| 2026-04-24 07:15 | 33.94760 | -118.41490 | 127 ft | 0 kts | 83° |
| 2026-04-24 07:17 | 33.94760 | -118.41489 | 126 ft | 1 kts | 83° |
| 2026-04-24 07:17 | 33.94764 | -118.41447 | 127 ft | 9 kts | 81° |
| 2026-04-24 07:17 | 33.94782 | -118.41359 | 131 ft | 11 kts | 84° |
| 2026-04-24 07:18 | 33.94746 | -118.41297 | 126 ft | 10 kts | 168° |
| 2026-04-24 07:18 | 33.94659 | -118.41280 | 128 ft | 15 kts | 172° |
| 2026-04-24 07:18 | 33.94546 | -118.41265 | 128 ft | 18 kts | 174° |
| 2026-04-24 07:18 | 33.94420 | -118.41250 | 128 ft | 19 kts | 174° |
| 2026-04-24 07:19 | 33.94309 | -118.41237 | 128 ft | 15 kts | 174° |
| 2026-04-24 07:19 | 33.94208 | -118.41221 | 128 ft | 7 kts | 166° |
| 2026-04-24 07:19 | 33.94170 | -118.41175 | 126 ft | 6 kts | 101° |
| 2026-04-24 07:19 | 33.94174 | -118.41132 | 127 ft | 6 kts | 82° |
| 2026-04-24 07:20 | 33.94176 | -118.41112 | 129 ft | 2 kts | 83° |
| 2026-04-24 07:20 | 33.94177 | -118.41106 | 129 ft | 0 kts | 83° |